createdAt,value
2017-09-01T00:00:20.762Z,997.25
2017-09-01T00:01:31.117Z,997.19
2017-09-01T00:02:41.483Z,997.22
2017-09-01T00:03:51.831Z,997.26
2017-09-01T00:05:02.163Z,997.3
2017-09-01T00:06:12.252Z,997.3
2017-09-01T00:07:22.596Z,997.3
2017-09-01T00:08:32.953Z,997.26
2017-09-01T00:09:43.290Z,997.28
2017-09-01T00:10:53.636Z,997.21
2017-09-01T00:12:03.984Z,997.3
2017-09-01T00:13:14.327Z,997.26
2017-09-01T00:14:24.659Z,997.23
2017-09-01T00:15:35.004Z,997.26
2017-09-01T00:16:45.036Z,997.22
2017-09-01T00:17:55.443Z,997.25
2017-09-01T00:19:05.470Z,997.22
2017-09-01T00:20:15.817Z,997.21
2017-09-01T00:21:26.172Z,997.18
2017-09-01T00:22:36.194Z,997.23
2017-09-01T00:23:46.583Z,997.22
2017-09-01T00:24:56.931Z,997.18
2017-09-01T00:26:06.974Z,997.15
2017-09-01T00:27:17.308Z,997.13
2017-09-01T00:28:27.341Z,997.08
2017-09-01T00:29:37.691Z,997.11
2017-09-01T00:30:48.037Z,997.1
2017-09-01T00:31:58.399Z,997.11
2017-09-01T00:33:08.745Z,997.15
2017-09-01T00:34:19.115Z,997.16
2017-09-01T00:35:29.183Z,997.18
2017-09-01T00:36:38.896Z,997.15
2017-09-01T00:37:48.941Z,997.18
2017-09-01T00:38:58.960Z,997.06
2017-09-01T00:40:08.992Z,997.13
2017-09-01T00:41:19.380Z,997.15
2017-09-01T00:42:29.741Z,997.07
2017-09-01T00:43:40.107Z,997.03
2017-09-01T00:44:50.443Z,997.06
2017-09-01T00:46:00.776Z,997.01
2017-09-01T00:47:10.806Z,997.01
2017-09-01T00:48:21.147Z,997.02
2017-09-01T00:49:31.227Z,996.99
2017-09-01T00:50:41.242Z,997.11
2017-09-01T00:51:51.580Z,997.04
2017-09-01T00:53:01.935Z,996.98
2017-09-01T00:54:11.974Z,997.02
2017-09-01T00:55:21.998Z,997
2017-09-01T00:56:31.715Z,996.96
2017-09-01T00:57:42.053Z,997.02
2017-09-01T00:58:52.385Z,996.96
2017-09-01T01:00:02.743Z,997.02
2017-09-01T01:01:13.094Z,996.96
2017-09-01T01:02:23.451Z,996.97
2017-09-01T01:03:33.810Z,997
2017-09-01T01:04:43.885Z,996.94
2017-09-01T01:05:54.223Z,996.97
2017-09-01T01:07:04.273Z,996.94
2017-09-01T01:08:14.630Z,996.89
2017-09-01T01:09:24.980Z,996.9
2017-09-01T01:10:35.371Z,996.93
2017-09-01T01:11:45.743Z,996.9
2017-09-01T01:12:56.075Z,996.88
2017-09-01T01:14:06.084Z,996.89
2017-09-01T01:15:16.414Z,996.88
2017-09-01T01:16:26.431Z,996.91
2017-09-01T01:17:36.795Z,996.93
2017-09-01T01:18:47.136Z,996.93
2017-09-01T01:19:57.506Z,996.9
2017-09-01T01:21:07.853Z,996.87
2017-09-01T01:22:19.693Z,996.87
2017-09-01T01:23:30.038Z,996.87
2017-09-01T01:24:40.370Z,996.85
2017-09-01T01:25:52.904Z,996.83
2017-09-01T01:27:02.948Z,996.82
2017-09-01T01:28:12.971Z,996.81
2017-09-01T01:29:23.329Z,996.85
2017-09-01T01:30:33.675Z,996.81
2017-09-01T01:31:44.019Z,996.83
2017-09-01T01:32:54.361Z,996.81
2017-09-01T01:34:04.457Z,996.8
2017-09-01T01:35:16.207Z,996.86
2017-09-01T01:36:26.540Z,996.84
2017-09-01T01:37:36.574Z,996.85
2017-09-01T01:38:46.931Z,996.82
2017-09-01T01:39:57.278Z,996.82
2017-09-01T01:41:07.610Z,996.77
2017-09-01T01:42:17.961Z,996.77
2017-09-01T01:43:28.312Z,996.75
2017-09-01T01:44:38.335Z,996.72
2017-09-01T01:45:48.745Z,996.69
2017-09-01T01:46:59.096Z,996.66
2017-09-01T01:48:09.431Z,996.66
2017-09-01T01:49:19.456Z,996.65
2017-09-01T01:50:29.813Z,996.63
2017-09-01T01:51:40.151Z,996.65
2017-09-01T01:52:50.165Z,996.67
2017-09-01T01:54:00.557Z,996.64
2017-09-01T01:55:10.908Z,996.63
2017-09-01T01:56:20.936Z,996.66
2017-09-01T01:57:31.273Z,996.65
2017-09-01T01:58:41.000Z,996.65
2017-09-01T01:59:51.336Z,996.68
2017-09-01T02:01:01.350Z,996.7
2017-09-01T02:02:11.689Z,996.7
2017-09-01T02:03:22.097Z,996.66
2017-09-01T02:04:32.123Z,996.65
2017-09-01T02:05:42.470Z,996.7
2017-09-01T02:06:52.493Z,996.71
2017-09-01T02:08:02.529Z,996.71
2017-09-01T02:09:12.605Z,996.69
2017-09-01T02:10:22.636Z,996.7
2017-09-01T02:11:32.971Z,996.66
2017-09-01T02:12:43.007Z,996.7
2017-09-01T02:13:53.050Z,996.65
2017-09-01T02:15:03.389Z,996.64
2017-09-01T02:16:13.422Z,996.69
2017-09-01T02:17:23.768Z,996.76
2017-09-01T02:18:34.100Z,996.76
2017-09-01T02:19:44.444Z,996.69
2017-09-01T02:20:54.838Z,996.76
2017-09-01T02:22:05.171Z,996.74
2017-09-01T02:23:15.191Z,996.72
2017-09-01T02:24:25.556Z,996.74
2017-09-01T02:25:35.886Z,996.73
2017-09-01T02:26:46.232Z,996.71
2017-09-01T02:27:56.261Z,996.65
2017-09-01T02:29:06.623Z,996.65
2017-09-01T02:30:16.662Z,996.63
2017-09-01T02:31:27.019Z,996.61
2017-09-01T02:32:37.068Z,996.71
2017-09-01T02:33:47.402Z,996.65
2017-09-01T02:34:57.754Z,996.66
2017-09-01T02:36:08.095Z,996.68
2017-09-01T02:37:18.130Z,996.7
2017-09-01T02:38:28.482Z,996.73
2017-09-01T02:39:38.830Z,996.73
2017-09-01T02:40:48.538Z,996.74
2017-09-01T02:41:58.565Z,996.69
2017-09-01T02:43:08.912Z,996.77
2017-09-01T02:44:19.315Z,996.75
2017-09-01T02:45:29.652Z,996.75
2017-09-01T02:46:40.296Z,996.71
2017-09-01T02:47:50.328Z,996.72
2017-09-01T02:49:00.674Z,996.7
2017-09-01T02:50:11.013Z,996.71
2017-09-01T02:51:21.369Z,996.75
2017-09-01T02:52:31.732Z,996.67
2017-09-01T02:53:42.087Z,996.75
2017-09-01T02:54:52.421Z,996.77
2017-09-01T02:56:02.751Z,996.8
2017-09-01T02:57:12.783Z,996.75
2017-09-01T02:58:23.137Z,996.77
2017-09-01T02:59:32.847Z,996.73
2017-09-01T03:00:42.898Z,996.72
2017-09-01T03:01:53.239Z,996.7
2017-09-01T03:33:36.470Z,996.89
2017-09-01T03:34:46.480Z,996.97
2017-09-01T03:35:56.503Z,996.86
2017-09-01T03:37:06.507Z,996.89
2017-09-01T03:38:16.519Z,996.84
2017-09-01T03:39:26.597Z,996.87
2017-09-01T03:40:36.619Z,996.88
2017-09-01T03:41:46.965Z,996.9
2017-09-01T03:42:57.316Z,996.94
2017-09-01T03:44:07.332Z,996.91
2017-09-01T03:45:17.722Z,996.91
2017-09-01T03:46:28.053Z,996.85
2017-09-01T03:47:38.385Z,996.89
2017-09-01T03:48:48.422Z,996.87
2017-09-01T03:49:58.448Z,996.88
2017-09-01T03:51:08.800Z,996.9
2017-09-01T03:52:18.826Z,996.8
2017-09-01T03:53:28.870Z,996.78
2017-09-01T03:54:39.259Z,996.77
2017-09-01T03:55:49.287Z,996.72
2017-09-01T03:56:59.645Z,996.72
2017-09-01T03:58:09.663Z,996.71
2017-09-01T03:59:20.008Z,996.74
2017-09-01T04:00:30.352Z,996.75
2017-09-01T04:01:40.716Z,996.77
2017-09-01T04:02:51.118Z,996.76
2017-09-01T04:04:01.469Z,996.78
2017-09-01T04:05:11.815Z,996.84
2017-09-01T04:06:21.848Z,996.79
2017-09-01T04:07:32.191Z,996.75
2017-09-01T04:08:42.581Z,996.72
2017-09-01T04:09:52.925Z,996.72
2017-09-01T04:11:03.274Z,996.7
2017-09-01T04:12:13.613Z,996.69
2017-09-01T04:13:23.959Z,996.69
2017-09-01T04:14:34.383Z,996.69
2017-09-01T04:15:44.730Z,996.61
2017-09-01T04:16:54.769Z,996.65
2017-09-01T04:18:04.802Z,996.63
2017-09-01T04:19:14.828Z,996.67
2017-09-01T04:20:25.188Z,996.61
2017-09-01T04:21:35.532Z,996.65
2017-09-01T04:22:45.583Z,996.62
2017-09-01T04:23:55.936Z,996.58
2017-09-01T04:25:06.271Z,996.63
2017-09-01T04:26:16.603Z,996.68
2017-09-01T04:27:26.930Z,996.7
2017-09-01T04:28:36.957Z,996.78
2017-09-01T04:29:47.360Z,996.71
2017-09-01T04:30:57.705Z,996.73
2017-09-01T04:32:07.781Z,996.7
2017-09-01T04:33:19.947Z,996.61
2017-09-01T04:34:30.284Z,996.67
2017-09-01T04:35:40.622Z,996.57
2017-09-01T04:36:50.973Z,996.65
2017-09-01T04:38:01.028Z,996.67
2017-09-01T04:39:11.381Z,996.74
2017-09-01T04:40:21.724Z,996.73
2017-09-01T04:41:32.061Z,996.76
2017-09-01T04:42:42.418Z,996.69
2017-09-01T04:43:52.484Z,996.67
2017-09-01T04:45:02.513Z,996.7
2017-09-01T04:46:12.850Z,996.64
2017-09-01T04:47:22.879Z,996.68
2017-09-01T04:48:33.217Z,996.69
2017-09-01T04:49:42.933Z,996.68
2017-09-01T04:50:52.967Z,996.71
2017-09-01T04:52:03.004Z,996.74
2017-09-01T04:53:13.403Z,996.82
2017-09-01T04:54:23.436Z,996.73
2017-09-01T04:55:33.457Z,996.74
2017-09-01T04:56:44.451Z,996.73
2017-09-01T04:57:54.780Z,996.81
2017-09-01T04:59:05.120Z,996.77
2017-09-01T05:00:15.404Z,996.79
2017-09-01T05:01:25.742Z,996.8
2017-09-01T05:02:35.768Z,996.84
2017-09-01T05:03:45.779Z,996.85
2017-09-01T05:04:56.135Z,996.9
2017-09-01T05:06:06.492Z,996.91
2017-09-01T05:07:16.881Z,996.91
2017-09-01T05:08:27.222Z,996.88
2017-09-01T05:09:37.245Z,996.82
2017-09-01T05:10:47.602Z,996.75
2017-09-01T05:11:57.628Z,996.78
2017-09-01T05:13:08.010Z,996.82
2017-09-01T05:14:18.363Z,996.83
2017-09-01T05:15:29.406Z,996.89
2017-09-01T05:16:39.441Z,996.88
2017-09-01T05:17:49.477Z,996.91
2017-09-01T05:18:59.499Z,996.82
2017-09-01T05:20:09.197Z,996.77
2017-09-01T05:21:19.216Z,996.8
2017-09-01T05:22:29.568Z,996.82
2017-09-01T05:23:39.924Z,996.9
2017-09-01T05:24:50.343Z,996.89
2017-09-01T05:26:00.368Z,996.94
2017-09-01T05:27:10.717Z,996.97
2017-09-01T05:28:20.752Z,996.96
2017-09-01T05:29:31.101Z,997
2017-09-01T05:30:41.490Z,997.01
2017-09-01T05:31:52.195Z,996.98
2017-09-01T05:33:03.773Z,996.96
2017-09-01T05:34:14.122Z,996.98
2017-09-01T05:35:24.158Z,997.06
2017-09-01T05:36:34.522Z,996.99
2017-09-01T05:37:44.885Z,997.01
2017-09-01T05:38:55.245Z,997.03
2017-09-01T05:40:05.751Z,997.02
2017-09-01T05:41:17.399Z,997.03
2017-09-01T05:42:27.749Z,996.9
2017-09-01T05:43:38.085Z,996.78
2017-09-01T05:44:48.414Z,996.78
2017-09-01T05:45:58.436Z,996.65
2017-09-01T05:47:08.775Z,996.65
2017-09-01T05:48:19.120Z,996.64
2017-09-01T05:49:29.155Z,996.73
2017-09-01T05:50:39.518Z,996.65
2017-09-01T05:51:49.880Z,996.66
2017-09-01T05:53:00.226Z,996.66
2017-09-01T05:54:10.627Z,996.62
2017-09-01T05:55:20.660Z,996.57
2017-09-01T05:56:31.510Z,996.66
2017-09-01T05:57:41.853Z,996.6
2017-09-01T05:58:52.197Z,996.62
2017-09-01T06:00:01.968Z,996.59
2017-09-01T06:01:12.316Z,996.56
2017-09-01T06:02:22.666Z,996.59
2017-09-01T06:03:33.010Z,996.62
2017-09-01T06:04:42.731Z,996.58
2017-09-01T06:05:52.829Z,996.54
2017-09-01T06:07:03.175Z,996.55
2017-09-01T06:08:13.202Z,996.58
2017-09-01T06:09:23.539Z,996.6
2017-09-01T06:10:33.566Z,996.59
2017-09-01T06:11:43.959Z,996.55
2017-09-01T06:12:54.294Z,996.53
2017-09-01T06:14:04.647Z,996.52
2017-09-01T06:15:14.676Z,996.51
2017-09-01T06:16:25.045Z,996.49
2017-09-01T06:17:35.410Z,996.48
2017-09-01T06:18:45.139Z,996.47
2017-09-01T06:19:55.170Z,996.43
2017-09-01T06:21:05.190Z,996.42
2017-09-01T06:22:15.526Z,996.31
2017-09-01T06:23:25.547Z,996.32
2017-09-01T06:24:35.886Z,996.29
2017-09-01T06:25:47.914Z,996.26
2017-09-01T06:26:57.943Z,996.26
2017-09-01T06:28:07.964Z,996.23
2017-09-01T06:29:18.357Z,996.19
2017-09-01T06:30:28.732Z,996.14
2017-09-01T06:31:39.083Z,996.16
2017-09-01T06:32:49.109Z,996.17
2017-09-01T06:33:59.481Z,996.2
2017-09-01T06:35:09.829Z,996.15
2017-09-01T06:36:20.159Z,996.16
2017-09-01T06:37:30.181Z,996.16
2017-09-01T06:38:40.514Z,996.15
2017-09-01T06:39:50.861Z,996.17
2017-09-01T06:41:00.878Z,996.23
2017-09-01T06:42:10.898Z,996.28
2017-09-01T06:43:20.931Z,996.25
2017-09-01T06:44:30.969Z,996.18
2017-09-01T06:45:40.990Z,996.24
2017-09-01T06:46:51.384Z,996.17
2017-09-01T06:48:01.738Z,996.17
2017-09-01T06:49:12.136Z,996.17
2017-09-01T06:50:22.507Z,996.32
2017-09-01T06:51:32.843Z,996.28
2017-09-01T06:52:43.251Z,996.26
2017-09-01T06:53:53.602Z,996.27
2017-09-01T06:55:03.617Z,996.29
2017-09-01T06:56:14.000Z,996.25
2017-09-01T06:57:24.341Z,996.31
2017-09-01T06:58:34.745Z,996.35
2017-09-01T06:59:45.092Z,996.34
2017-09-01T07:00:55.477Z,996.4
2017-09-01T07:02:05.506Z,996.4
2017-09-01T07:03:15.861Z,996.49
2017-09-01T07:04:25.570Z,996.56
2017-09-01T07:05:35.905Z,996.58
2017-09-01T07:06:45.617Z,996.58
2017-09-01T07:07:55.637Z,996.6
2017-09-01T07:09:05.985Z,996.64
2017-09-01T07:10:16.392Z,996.64
2017-09-01T07:11:26.737Z,996.7
2017-09-01T07:12:37.111Z,996.7
2017-09-01T07:13:47.456Z,996.81
2017-09-01T07:14:57.807Z,996.82
2017-09-01T07:16:07.886Z,996.81
2017-09-01T07:17:17.908Z,996.8
2017-09-01T07:18:28.259Z,996.79
2017-09-01T07:19:38.607Z,996.87
2017-09-01T07:20:48.964Z,996.86
2017-09-01T07:21:59.347Z,996.85
2017-09-01T07:23:09.382Z,996.83
2017-09-01T07:24:19.410Z,996.79
2017-09-01T07:25:29.757Z,996.79
2017-09-01T07:26:39.781Z,996.73
2017-09-01T07:27:49.180Z,996.67
2017-09-01T07:28:59.549Z,996.62
2017-09-01T07:30:09.942Z,996.59
2017-09-01T07:31:19.963Z,996.59
2017-09-01T07:32:30.316Z,996.54
2017-09-01T07:33:40.367Z,996.6
2017-09-01T07:34:50.723Z,996.64
2017-09-01T07:36:00.770Z,996.69
2017-09-01T07:37:10.778Z,996.72
2017-09-01T07:38:21.105Z,996.74
2017-09-01T07:39:31.505Z,996.79
2017-09-01T07:40:41.866Z,996.78
2017-09-01T07:41:52.220Z,996.76
2017-09-01T07:43:02.564Z,996.83
2017-09-01T07:44:12.897Z,996.83
2017-09-01T07:45:23.291Z,996.85
2017-09-01T07:46:33.639Z,996.77
2017-09-01T07:47:43.983Z,996.84
2017-09-01T07:48:54.004Z,996.8
2017-09-01T07:50:04.352Z,996.76
2017-09-01T07:51:14.443Z,996.74
2017-09-01T07:52:24.776Z,996.86
2017-09-01T07:53:35.168Z,996.74
2017-09-01T07:54:45.529Z,996.78
2017-09-01T07:55:55.880Z,996.74
2017-09-01T07:57:05.929Z,996.79
2017-09-01T07:58:15.663Z,996.77
2017-09-01T07:59:26.011Z,996.78
2017-09-01T08:00:36.041Z,996.77
2017-09-01T08:01:46.069Z,996.82
2017-09-01T08:02:56.474Z,996.81
2017-09-01T08:04:06.818Z,996.74
2017-09-01T08:05:17.175Z,996.79
2017-09-01T08:06:26.893Z,996.79
2017-09-01T08:07:37.237Z,996.76
2017-09-01T08:08:47.739Z,996.82
2017-09-01T08:09:58.066Z,996.79
2017-09-01T08:11:08.100Z,996.72
2017-09-01T08:12:18.131Z,996.67
2017-09-01T08:13:28.505Z,996.75
2017-09-01T08:14:38.267Z,996.71
2017-09-01T08:15:48.615Z,996.64
2017-09-01T08:16:58.962Z,996.65
2017-09-01T08:18:08.991Z,996.71
2017-09-01T08:19:19.327Z,996.69
2017-09-01T08:20:29.507Z,996.71
2017-09-01T08:21:39.938Z,996.72
2017-09-01T08:22:49.971Z,996.71
2017-09-01T08:24:00.908Z,996.74
2017-09-01T08:25:11.500Z,996.69
2017-09-01T08:26:21.857Z,996.71
2017-09-01T08:27:32.257Z,996.74
2017-09-01T08:28:42.620Z,996.65
2017-09-01T08:29:52.330Z,996.67
2017-09-01T08:31:02.706Z,996.58
2017-09-01T08:32:13.090Z,996.5
2017-09-01T08:33:22.857Z,996.51
2017-09-01T08:34:33.189Z,996.41
2017-09-01T08:35:43.550Z,996.32
2017-09-01T08:36:53.579Z,996.36
2017-09-01T08:38:03.944Z,996.38
2017-09-01T08:39:14.482Z,996.34
2017-09-01T08:40:24.843Z,996.37
2017-09-01T08:41:35.193Z,996.26
2017-09-01T08:42:45.543Z,996.39
2017-09-01T08:43:55.904Z,996.33
2017-09-01T08:45:06.266Z,996.23
2017-09-01T08:46:16.283Z,996.26
2017-09-01T08:47:28.031Z,996.22
2017-09-01T08:48:38.383Z,996.21
2017-09-01T08:49:48.728Z,996.22
2017-09-01T08:50:58.749Z,996.21
2017-09-01T08:52:09.092Z,996.22
2017-09-01T08:53:19.432Z,996.14
2017-09-01T08:54:30.674Z,996.08
2017-09-01T08:55:41.020Z,996.06
2017-09-01T08:56:51.374Z,996.09
2017-09-01T08:58:01.726Z,996.1
2017-09-01T08:59:12.128Z,996.1
2017-09-01T09:00:22.150Z,996.18
2017-09-01T09:01:31.866Z,996.17
2017-09-01T09:02:41.901Z,996.11
2017-09-01T09:03:52.249Z,996.14
2017-09-01T09:05:02.639Z,996.12
2017-09-01T09:06:12.981Z,996.17
2017-09-01T09:07:23.347Z,996.2
2017-09-01T09:08:33.694Z,996.23
2017-09-01T09:09:43.403Z,996.27
2017-09-01T09:10:53.769Z,996.27
2017-09-01T09:12:04.117Z,996.37
2017-09-01T09:13:14.474Z,996.43
2017-09-01T09:14:24.830Z,996.51
2017-09-01T09:15:34.867Z,996.56
2017-09-01T09:16:45.284Z,996.61
2017-09-01T09:17:55.631Z,996.62
2017-09-01T09:19:05.666Z,996.65
2017-09-01T09:20:16.020Z,996.59
2017-09-01T09:21:26.396Z,996.57
2017-09-01T09:22:36.757Z,996.58
2017-09-01T09:23:47.095Z,996.58
2017-09-01T09:24:57.457Z,996.54
2017-09-01T09:26:07.489Z,996.52
2017-09-01T09:27:17.194Z,996.58
2017-09-01T09:28:27.535Z,996.47
2017-09-01T09:29:37.576Z,996.4
2017-09-01T09:30:47.631Z,996.35
2017-09-01T09:31:57.989Z,996.33
2017-09-01T09:33:08.358Z,996.33
2017-09-01T09:34:18.132Z,996.32
2017-09-01T09:35:28.493Z,996.3
2017-09-01T09:36:38.858Z,996.24
2017-09-01T09:37:48.886Z,996.27
2017-09-01T09:38:59.223Z,996.25
2017-09-01T09:40:09.568Z,996.38
2017-09-01T09:41:19.922Z,996.36
2017-09-01T09:42:31.197Z,996.4
2017-09-01T09:43:41.534Z,996.35
2017-09-01T09:44:51.570Z,996.34
2017-09-01T09:46:01.972Z,996.24
2017-09-01T09:47:12.360Z,996.22
2017-09-01T09:48:22.707Z,996.24
2017-09-01T09:49:33.066Z,996.28
2017-09-01T09:50:43.475Z,996.25
2017-09-01T09:51:53.832Z,996.27
2017-09-01T09:53:04.181Z,996.24
2017-09-01T09:54:14.525Z,996.33
2017-09-01T09:55:24.558Z,996.32
2017-09-01T09:56:34.959Z,996.3
2017-09-01T09:57:45.310Z,996.2
2017-09-01T09:58:55.653Z,996.14
2017-09-01T10:00:05.688Z,996.15
2017-09-01T10:01:15.727Z,996.09
2017-09-01T10:02:25.804Z,996.05
2017-09-01T10:03:36.164Z,996.12
2017-09-01T10:04:46.552Z,996.1
2017-09-01T10:05:56.905Z,996.1
2017-09-01T10:07:07.257Z,996.09
2017-09-01T10:08:17.682Z,995.97
2017-09-01T10:09:28.025Z,995.96
2017-09-01T10:10:38.386Z,995.85
2017-09-01T10:11:48.438Z,995.81
2017-09-01T10:12:58.804Z,995.74
2017-09-01T10:14:08.875Z,995.77
2017-09-01T10:15:18.914Z,995.77
2017-09-01T10:16:29.265Z,995.75
2017-09-01T10:17:39.616Z,995.71
2017-09-01T10:18:49.338Z,995.72
2017-09-01T10:19:59.732Z,995.65
2017-09-01T10:21:10.110Z,995.61
2017-09-01T10:22:20.483Z,995.58
2017-09-01T10:23:30.832Z,995.62
2017-09-01T10:24:41.175Z,995.57
2017-09-01T10:25:51.569Z,995.63
2017-09-01T10:27:01.610Z,995.52
2017-09-01T10:28:11.642Z,995.46
2017-09-01T10:29:21.997Z,995.48
2017-09-01T10:30:32.346Z,995.54
2017-09-01T10:31:42.753Z,995.47
2017-09-01T10:32:53.102Z,995.46
2017-09-01T10:34:03.466Z,995.53
2017-09-01T10:35:13.824Z,995.5
2017-09-01T10:36:23.855Z,995.43
2017-09-01T10:37:34.253Z,995.41
2017-09-01T10:38:44.286Z,995.45
2017-09-01T10:39:54.639Z,995.4
2017-09-01T10:41:05.045Z,995.43
2017-09-01T10:42:15.393Z,995.48
2017-09-01T10:43:25.748Z,995.54
2017-09-01T10:44:36.141Z,995.56
2017-09-01T10:45:46.505Z,995.59
2017-09-01T10:46:56.541Z,995.64
2017-09-01T10:48:06.573Z,995.65
2017-09-01T10:49:16.674Z,995.65
2017-09-01T10:50:26.391Z,995.58
2017-09-01T10:51:36.737Z,995.63
2017-09-01T10:52:46.766Z,995.65
2017-09-01T10:53:57.120Z,995.67
2017-09-01T10:55:07.527Z,995.6
2017-09-01T10:56:17.561Z,995.55
2017-09-01T10:57:27.933Z,995.53
2017-09-01T10:58:37.652Z,995.48
2017-09-01T10:59:48.353Z,995.51
2017-09-01T11:00:58.722Z,995.53
2017-09-01T11:02:09.120Z,995.54
2017-09-01T11:03:19.152Z,995.58
2017-09-01T11:04:29.180Z,995.53
2017-09-01T11:05:39.524Z,995.52
2017-09-01T11:06:49.551Z,995.47
2017-09-01T11:07:59.596Z,995.44
2017-09-01T11:09:09.946Z,995.41
2017-09-01T11:10:20.446Z,995.41
2017-09-01T11:11:30.786Z,995.44
2017-09-01T11:12:40.875Z,995.55
2017-09-01T11:13:51.210Z,995.47
2017-09-01T11:15:01.247Z,995.49
2017-09-01T11:16:11.325Z,995.54
2017-09-01T11:17:21.684Z,995.52
2017-09-01T11:18:32.048Z,995.45
2017-09-01T11:19:42.395Z,995.46
2017-09-01T11:20:52.731Z,995.46
2017-09-01T11:22:04.617Z,995.54
2017-09-01T11:23:14.975Z,995.53
2017-09-01T11:24:25.472Z,995.58
2017-09-01T11:25:35.839Z,995.63
2017-09-01T11:26:46.185Z,995.68
2017-09-01T11:27:58.257Z,995.7
2017-09-01T11:29:10.081Z,995.62
2017-09-01T11:30:21.872Z,995.64
2017-09-01T11:31:32.208Z,995.6
2017-09-01T11:32:43.961Z,995.59
2017-09-01T11:33:53.736Z,995.56
2017-09-01T11:35:04.092Z,995.56
2017-09-01T11:36:14.115Z,995.56
2017-09-01T11:37:24.465Z,995.49
2017-09-01T11:38:34.809Z,995.51
2017-09-01T11:39:44.841Z,995.47
2017-09-01T11:40:55.186Z,995.47
2017-09-01T11:42:05.597Z,995.53
2017-09-01T11:43:15.934Z,995.61
2017-09-01T11:44:26.277Z,995.65
2017-09-01T11:45:36.306Z,995.66
2017-09-01T11:46:46.655Z,995.73
2017-09-01T11:47:56.693Z,995.72
2017-09-01T11:49:07.050Z,995.75
2017-09-01T11:50:17.406Z,995.67
2017-09-01T11:51:27.764Z,995.72
2017-09-01T11:52:38.111Z,995.71
2017-09-01T11:53:48.506Z,995.75
2017-09-01T11:54:58.243Z,995.74
2017-09-01T11:56:08.594Z,995.77
2017-09-01T11:57:18.629Z,995.8
2017-09-01T11:58:28.961Z,995.82
2017-09-01T11:59:39.047Z,995.86
2017-09-01T12:00:49.413Z,995.85
2017-09-01T12:01:59.442Z,995.88
2017-09-01T12:03:09.790Z,995.81
2017-09-01T12:04:20.148Z,995.84
2017-09-01T12:05:30.192Z,995.82
2017-09-01T12:06:40.535Z,995.83
2017-09-01T12:07:50.887Z,995.86
2017-09-01T12:09:01.790Z,995.91
2017-09-01T12:10:11.825Z,995.87
2017-09-01T12:11:22.173Z,995.89
2017-09-01T12:12:32.552Z,995.94
2017-09-01T12:13:42.951Z,995.89
2017-09-01T12:14:53.292Z,995.9
2017-09-01T12:16:03.653Z,995.89
2017-09-01T12:17:14.299Z,995.86
2017-09-01T12:18:24.642Z,995.86
2017-09-01T12:19:34.717Z,995.88
2017-09-01T12:20:45.069Z,995.86
2017-09-01T12:21:54.773Z,995.83
2017-09-01T12:23:05.132Z,995.83
2017-09-01T12:24:15.162Z,995.71
2017-09-01T12:25:24.919Z,995.75
2017-09-01T12:26:35.264Z,995.72
2017-09-01T12:27:45.612Z,995.72
2017-09-01T12:28:55.965Z,995.68
2017-09-01T12:30:06.336Z,995.68
2017-09-01T12:31:16.364Z,995.58
2017-09-01T12:32:26.716Z,995.56
2017-09-01T12:33:37.071Z,995.48
2017-09-01T12:34:49.478Z,995.4
2017-09-01T12:35:59.495Z,995.32
2017-09-01T12:37:09.881Z,995.24
2017-09-01T12:38:19.912Z,995.18
2017-09-01T12:39:29.935Z,995.16
2017-09-01T12:40:40.272Z,995.11
2017-09-01T12:41:50.623Z,995.1
2017-09-01T12:43:01.040Z,995.01
2017-09-01T12:44:11.394Z,994.86
2017-09-01T12:45:21.773Z,994.9
2017-09-01T12:46:32.115Z,994.9
2017-09-01T12:47:42.467Z,994.85
2017-09-01T12:48:52.861Z,994.78
2017-09-01T12:50:03.240Z,994.73
2017-09-01T12:51:13.605Z,994.72
2017-09-01T12:52:23.640Z,994.72
2017-09-01T12:53:33.654Z,994.63
2017-09-01T12:54:44.044Z,994.6
2017-09-01T12:55:54.061Z,994.6
2017-09-01T12:57:04.407Z,994.67
2017-09-01T12:58:14.124Z,994.68
2017-09-01T12:59:24.175Z,994.74
2017-09-01T13:00:34.578Z,994.76
2017-09-01T13:01:44.917Z,994.77
2017-09-01T13:02:55.269Z,994.77
2017-09-01T13:04:05.905Z,994.85
2017-09-01T13:05:18.415Z,994.86
2017-09-01T13:06:32.454Z,994.92
2017-09-01T13:07:42.804Z,994.94
2017-09-01T13:08:52.833Z,994.92
2017-09-01T13:10:03.183Z,994.94
2017-09-01T13:11:13.246Z,994.91
2017-09-01T13:12:23.813Z,994.97
2017-09-01T13:14:09.759Z,995
2017-09-01T13:15:20.127Z,995.07
2017-09-01T13:16:30.474Z,995.18
2017-09-01T13:17:40.832Z,995.2
2017-09-01T13:18:51.165Z,995.16
2017-09-01T13:20:01.557Z,995.14
2017-09-01T13:21:11.602Z,995.18
2017-09-01T13:22:22.024Z,995.14
2017-09-01T13:23:32.422Z,995.15
2017-09-01T13:24:42.788Z,995.19
2017-09-01T13:25:53.332Z,995.19
2017-09-01T13:27:03.736Z,995.24
2017-09-01T13:28:13.855Z,995.22
2017-09-01T13:29:23.929Z,995.21
2017-09-01T13:30:34.307Z,995.27
2017-09-01T13:31:44.364Z,995.21
2017-09-01T13:32:54.731Z,995.19
2017-09-01T13:34:05.152Z,995.2
2017-09-01T13:35:15.215Z,995.26
2017-09-01T13:36:25.578Z,995.26
2017-09-01T13:37:35.943Z,995.26
2017-09-01T13:38:48.039Z,995.25
2017-09-01T13:39:58.463Z,995.23
2017-09-01T13:41:08.494Z,995.26
2017-09-01T13:42:18.858Z,995.27
2017-09-01T13:43:28.632Z,995.26
2017-09-01T13:44:38.677Z,995.21
2017-09-01T13:45:48.745Z,995.22
2017-09-01T13:46:59.128Z,995.2
2017-09-01T13:48:09.185Z,995.21
2017-09-01T13:49:19.546Z,995.15
2017-09-01T13:50:29.605Z,995.21
2017-09-01T13:51:44.131Z,995.19
2017-09-01T13:52:56.463Z,995.2
2017-09-01T13:54:06.508Z,995.16
2017-09-01T13:55:16.556Z,995.12
2017-09-01T13:56:27.039Z,995.05
2017-09-01T13:57:37.445Z,995.07
2017-09-01T13:58:47.800Z,995.09
2017-09-01T13:59:58.147Z,995.1
2017-09-01T14:01:08.191Z,995.14
2017-09-01T14:02:20.602Z,995.11
2017-09-01T14:03:31.016Z,995.07
2017-09-01T14:04:41.051Z,995.06
2017-09-01T14:05:51.419Z,995.01
2017-09-01T14:07:01.447Z,995.02
2017-09-01T14:08:11.804Z,994.99
2017-09-01T14:09:22.199Z,995.05
2017-09-01T14:10:32.550Z,995.08
2017-09-01T14:11:42.899Z,995.05
2017-09-01T14:12:53.259Z,995.08
2017-09-01T14:14:04.161Z,995.05
2017-09-01T14:15:14.242Z,995.07
2017-09-01T14:16:24.997Z,995.09
2017-09-01T14:17:35.379Z,995.07
2017-09-01T14:18:45.417Z,995.05
2017-09-01T14:19:57.017Z,995.03
2017-09-01T14:21:07.424Z,995.03
2017-09-01T14:22:18.413Z,995.05
2017-09-01T14:23:28.449Z,995.07
2017-09-01T14:24:38.845Z,995.05
2017-09-01T14:25:48.909Z,995.03
2017-09-01T14:26:59.312Z,994.96
2017-09-01T14:28:09.680Z,994.98
2017-09-01T14:29:19.770Z,994.99
2017-09-01T14:30:29.498Z,994.92
2017-09-01T14:31:39.843Z,994.89
2017-09-01T14:32:50.890Z,994.84
2017-09-01T14:34:01.234Z,994.84
2017-09-01T14:35:10.630Z,994.85
2017-09-01T14:36:20.659Z,994.88
2017-09-01T14:37:30.708Z,994.83
2017-09-01T14:38:41.060Z,994.86
2017-09-01T14:39:51.085Z,994.81
2017-09-01T14:41:01.473Z,994.8
2017-09-01T14:42:11.808Z,994.84
2017-09-01T14:43:22.208Z,994.8
2017-09-01T14:44:31.940Z,994.79
2017-09-01T14:45:42.309Z,994.77
2017-09-01T14:46:54.710Z,994.77
2017-09-01T14:48:04.773Z,994.75
2017-09-01T14:49:14.869Z,994.75
2017-09-01T14:50:25.258Z,994.74
2017-09-01T14:51:34.995Z,994.69
2017-09-01T14:52:44.721Z,994.7
2017-09-01T14:53:55.099Z,994.71
2017-09-01T14:55:05.457Z,994.72
2017-09-01T14:56:15.812Z,994.79
2017-09-01T14:57:25.849Z,994.74
2017-09-01T14:58:36.266Z,994.77
2017-09-01T14:59:46.624Z,994.73
2017-09-01T15:00:57.018Z,994.77
2017-09-01T15:02:07.378Z,994.77
2017-09-01T15:03:19.322Z,994.72
2017-09-01T15:04:29.037Z,994.7
2017-09-01T15:05:39.381Z,994.72
2017-09-01T15:06:51.169Z,994.69
2017-09-01T15:08:01.535Z,994.64
2017-09-01T15:09:11.953Z,994.6
2017-09-01T15:10:22.312Z,994.51
2017-09-01T15:11:32.691Z,994.45